Time;durP1;ratioP1;P1;durP2;ratioP2;P2;SDS_P1;SDS_P2;PMS_P1;PMS_P2;Temp;Humidity;BMP_temperature;BMP_pressure;BME280_temperature;BME280_humidity;BME280_pressure;Samples;Min_cycle;Max_cycle;Signal;HPM_P1;HPM_P2
2021/10/30 00:00:49;;;;;;;14.63;11.52;;;;;;;12.20;100.00;100225.72;4962649;28;20084;-82
2021/10/30 00:03:15;;;;;;;17.25;12.30;;;;;;;12.20;100.00;100214.97;4991471;28;20462;-89
2021/10/30 00:05:41;;;;;;;21.75;13.75;;;;;;;12.21;100.00;100213.91;4991302;28;20483;-85
2021/10/30 00:08:06;;;;;;;17.33;13.02;;;;;;;12.21;100.00;100205.84;5001949;28;20125;-85
2021/10/30 00:10:32;;;;;;;17.77;12.75;;;;;;;12.18;100.00;100206.22;4987904;28;20050;-83
2021/10/30 00:12:58;;;;;;;16.38;11.90;;;;;;;12.17;100.00;100204.56;5013050;28;20041;-87
2021/10/30 00:15:24;;;;;;;17.80;12.88;;;;;;;12.16;100.00;100202.88;4988157;28;20092;-86
2021/10/30 00:17:51;;;;;;;18.08;13.40;;;;;;;12.17;100.00;100200.03;4998807;28;20046;-87
2021/10/30 00:20:16;;;;;;;18.50;13.68;;;;;;;12.14;100.00;100195.03;4982054;28;20083;-84
2021/10/30 00:22:41;;;;;;;17.63;12.73;;;;;;;12.12;100.00;100201.63;4983695;28;20076;-86
2021/10/30 00:25:08;;;;;;;17.42;12.80;;;;;;;12.09;100.00;100199.31;4984630;28;22460;-86
2021/10/30 00:27:33;;;;;;;17.17;12.38;;;;;;;12.08;100.00;100205.69;5003578;28;20057;-85
2021/10/30 00:30:05;;;;;;;18.17;12.27;;;;;;;12.08;100.00;100194.94;5006530;28;20042;-82
2021/10/30 00:32:30;;;;;;;17.77;13.60;;;;;;;12.05;100.00;100201.50;5003290;28;20145;-84
2021/10/30 00:34:55;;;;;;;21.15;13.85;;;;;;;12.05;100.00;100198.81;5003586;28;20125;-83
2021/10/30 00:37:21;;;;;;;18.30;12.85;;;;;;;12.02;100.00;100193.81;5000942;28;20068;-84
2021/10/30 00:39:46;;;;;;;17.58;13.27;;;;;;;11.98;100.00;100194.41;4969419;28;20045;-83
2021/10/30 00:42:12;;;;;;;18.13;13.68;;;;;;;11.95;100.00;100192.91;4969890;28;20060;-83
2021/10/30 00:44:37;;;;;;;19.88;14.10;;;;;;;11.93;100.00;100187.72;4986675;28;20042;-88
2021/10/30 00:47:03;;;;;;;19.33;13.45;;;;;;;11.95;100.00;100190.22;4999602;28;20046;-84
2021/10/30 00:49:29;;;;;;;20.95;13.18;;;;;;;11.91;100.00;100188.91;4968992;28;20038;-84
2021/10/30 00:51:57;;;;;;;16.20;12.73;;;;;;;11.92;100.00;100194.13;4982306;28;20049;-85
2021/10/30 00:54:25;;;;;;;15.35;11.07;;;;;;;11.93;100.00;100193.09;4986728;28;20073;-85
2021/10/30 00:56:53;;;;;;;18.85;11.70;;;;;;;11.94;100.00;100191.25;4970303;28;20469;-84
2021/10/30 00:59:20;;;;;;;17.13;11.67;;;;;;;11.97;100.00;100180.13;4984750;28;20080;-83
2021/10/30 01:01:50;;;;;;;16.42;11.85;;;;;;;12.00;100.00;100177.06;4984158;28;20044;-83
2021/10/30 01:04:17;;;;;;;17.38;12.02;;;;;;;12.00;100.00;100177.06;5000830;28;20042;-81
2021/10/30 01:06:45;;;;;;;16.20;11.10;;;;;;;12.00;100.00;100181.59;4984509;28;20116;-86
2021/10/30 01:09:12;;;;;;;17.88;12.02;;;;;;;11.96;100.00;100181.13;4990526;28;20038;-85
2021/10/30 01:11:40;;;;;;;14.25;11.52;;;;;;;11.96;100.00;100168.53;5000451;28;20743;-86
2021/10/30 01:14:07;;;;;;;18.38;12.57;;;;;;;11.95;100.00;100157.97;4968379;28;20034;-86
2021/10/30 01:16:32;;;;;;;18.65;12.40;;;;;;;11.92;100.00;100169.94;4974460;28;20038;-87
2021/10/30 01:19:00;;;;;;;16.65;12.77;;;;;;;11.91;100.00;100164.72;4986388;28;20045;-83
2021/10/30 01:21:28;;;;;;;16.27;12.38;;;;;;;11.84;100.00;100172.69;4984639;28;20486;-90
2021/10/30 01:23:53;;;;;;;17.25;13.23;;;;;;;11.85;100.00;100162.75;5003824;28;20036;-83
2021/10/30 01:26:21;;;;;;;18.67;13.48;;;;;;;11.84;100.00;100166.47;4996230;28;20039;-87
2021/10/30 01:28:48;;;;;;;18.50;13.27;;;;;;;11.80;100.00;100166.03;5003923;28;20041;-82
2021/10/30 01:31:13;;;;;;;19.60;13.75;;;;;;;11.83;100.00;100164.81;5000233;28;20045;-84
2021/10/30 01:33:42;;;;;;;20.27;13.73;;;;;;;11.85;100.00;100160.06;4980902;28;20402;-89
2021/10/30 01:36:09;;;;;;;17.83;13.47;;;;;;;11.84;100.00;100161.09;4986945;28;20038;-84
2021/10/30 01:38:34;;;;;;;19.00;13.20;;;;;;;11.85;100.00;100146.63;4983319;28;20049;-84
2021/10/30 01:41:00;;;;;;;22.25;14.13;;;;;;;11.89;100.00;100140.72;5001986;28;20046;-84
2021/10/30 01:43:25;;;;;;;18.55;13.82;;;;;;;11.87;100.00;100148.16;5001574;28;20510;-81
2021/10/30 01:45:51;;;;;;;20.58;13.20;;;;;;;11.85;100.00;100139.41;4995489;28;20076;-88
2021/10/30 01:48:16;;;;;;;16.35;13.43;;;;;;;11.86;100.00;100127.66;5009196;28;20044;-84
2021/10/30 01:50:43;;;;;;;20.20;13.27;;;;;;;11.85;100.00;100136.75;4985772;28;20041;-84
2021/10/30 01:53:10;;;;;;;19.73;12.93;;;;;;;11.85;100.00;100135.88;5001360;28;20052;-84
2021/10/30 01:55:38;;;;;;;17.17;12.77;;;;;;;11.86;100.00;100124.97;4998898;28;20483;-84
2021/10/30 01:58:04;;;;;;;19.35;13.13;;;;;;;11.86;100.00;100114.22;5002605;28;20172;-86
2021/10/30 02:00:34;;;;;;;18.08;13.55;;;;;;;11.83;100.00;100117.25;4982311;28;20041;-83
2021/10/30 02:03:00;;;;;;;18.08;13.18;;;;;;;11.84;100.00;100110.84;5006751;28;20573;-88
2021/10/30 02:05:25;;;;;;;19.80;14.10;;;;;;;11.84;100.00;100107.34;4984868;28;20092;-81
2021/10/30 02:07:52;;;;;;;18.38;13.73;;;;;;;11.79;100.00;100097.13;5011772;28;20430;-87
2021/10/30 02:10:17;;;;;;;19.00;13.65;;;;;;;11.77;100.00;100101.91;4987141;28;20046;-91
2021/10/30 02:12:43;;;;;;;18.73;15.27;;;;;;;11.79;100.00;100097.13;4984465;28;20045;-84
2021/10/30 02:15:09;;;;;;;19.70;13.48;;;;;;;11.77;100.00;100099.22;5001495;28;20457;-89
2021/10/30 02:17:36;;;;;;;20.58;14.85;;;;;;;11.74;100.00;100097.72;4997878;28;20124;-85
2021/10/30 02:20:05;;;;;;;21.13;14.23;;;;;;;11.70;100.00;100100.97;4983148;28;20057;-85
2021/10/30 02:22:30;;;;;;;19.15;14.60;;;;;;;11.71;100.00;100098.09;4999895;28;20053;-83
2021/10/30 02:24:57;;;;;;;23.13;14.60;;;;;;;11.70;100.00;100092.91;4981939;28;20129;-83
2021/10/30 02:27:22;;;;;;;19.80;15.20;;;;;;;11.67;100.00;100086.03;5001054;28;20573;-85
2021/10/30 02:29:48;;;;;;;21.50;14.60;;;;;;;11.64;100.00;100082.91;5000328;28;20053;-89
2021/10/30 02:32:14;;;;;;;21.23;14.57;;;;;;;11.62;100.00;100101.06;5003261;28;20042;-87
2021/10/30 02:34:40;;;;;;;20.33;15.07;;;;;;;11.64;100.00;100091.81;4969531;28;20057;-86
2021/10/30 02:37:08;;;;;;;19.25;13.73;;;;;;;11.65;100.00;100089.94;4986080;28;20044;-85
2021/10/30 02:39:34;;;;;;;19.65;14.18;;;;;;;11.62;100.00;100085.78;4989079;28;20038;-86
2021/10/30 02:41:59;;;;;;;18.08;14.77;;;;;;;11.62;100.00;100079.56;4987716;28;20046;-84
2021/10/30 02:44:25;;;;;;;16.98;13.23;;;;;;;11.61;100.00;100083.28;4972728;28;20471;-86
2021/10/30 02:46:50;;;;;;;17.50;12.95;;;;;;;11.62;100.00;100082.25;4986577;28;20062;-85
2021/10/30 02:49:17;;;;;;;17.90;12.95;;;;;;;11.63;100.00;100076.72;4988360;28;20223;-84
2021/10/30 02:51:43;;;;;;;19.27;13.00;;;;;;;11.64;100.00;100064.09;5003262;28;20042;-84
2021/10/30 02:54:09;;;;;;;16.75;12.45;;;;;;;11.65;100.00;100057.69;5000476;28;20029;-83
2021/10/30 02:56:35;;;;;;;18.17;13.32;;;;;;;11.65;100.00;100055.84;5006506;28;20092;-86
2021/10/30 02:59:00;;;;;;;15.77;11.98;;;;;;;11.67;100.00;100051.09;4979458;28;20042;-87
2021/10/30 03:01:25;;;;;;;14.98;11.63;;;;;;;11.66;100.00;100045.94;4980723;28;20099;-84
2021/10/30 03:03:51;;;;;;;14.68;10.57;;;;;;;11.65;100.00;100041.56;4966960;28;20130;-87
2021/10/30 03:06:21;;;;;;;12.15;9.48;;;;;;;11.67;100.00;100028.78;4997857;28;20092;-84
2021/10/30 03:08:47;;;;;;;13.07;9.10;;;;;;;11.67;100.00;100034.97;4984021;28;20120;-85
2021/10/30 03:11:12;;;;;;;13.52;8.98;;;;;;;11.68;100.00;100025.91;4984077;28;20487;-86
2021/10/30 03:13:37;;;;;;;12.40;9.13;;;;;;;11.71;100.00;100022.03;4965517;28;20073;-84
2021/10/30 03:16:03;;;;;;;10.63;7.75;;;;;;;11.71;99.87;100016.66;4986352;28;20100;-86
2021/10/30 03:18:28;;;;;;;11.32;8.93;;;;;;;11.73;99.13;100014.56;5002978;28;20089;-84
2021/10/30 03:20:54;;;;;;;12.80;7.90;;;;;;;11.75;98.79;100017.91;4989671;28;20505;-84
2021/10/30 03:23:19;;;;;;;12.00;8.18;;;;;;;11.74;98.50;100027.00;4985745;28;20062;-85
2021/10/30 03:25:45;;;;;;;11.45;8.40;;;;;;;11.73;98.32;100018.09;5003018;28;20046;-85
2021/10/30 03:28:10;;;;;;;10.98;8.07;;;;;;;11.73;98.05;100020.78;4991114;28;20041;-82
2021/10/30 03:30:36;;;;;;;12.50;7.80;;;;;;;11.75;97.46;100012.53;5018211;28;20045;-84
2021/10/30 03:33:02;;;;;;;11.27;7.47;;;;;;;11.76;97.02;100019.56;5017073;28;20061;-88
2021/10/30 03:35:28;;;;;;;9.27;6.75;;;;;;;11.74;96.91;100006.34;4980294;28;20042;-85
2021/10/30 03:37:53;;;;;;;12.15;8.00;;;;;;;11.73;96.56;100004.66;4983817;28;20069;-83
2021/10/30 03:40:18;;;;;;;9.35;7.05;;;;;;;11.72;96.56;100005.69;4991405;28;20152;-88
2021/10/30 03:42:44;;;;;;;8.73;6.78;;;;;;;11.72;96.30;100005.69;4980285;28;20114;-87
2021/10/30 03:45:09;;;;;;;10.52;7.38;;;;;;;11.72;96.07;99994.94;5007411;28;20050;-81
2021/10/30 03:47:35;;;;;;;11.50;7.53;;;;;;;11.71;95.99;99992.47;5011463;28;20057;-86
2021/10/30 03:50:01;;;;;;;11.85;8.00;;;;;;;11.70;95.87;100004.22;4994646;28;20070;-81
2021/10/30 03:52:27;;;;;;;14.82;7.85;;;;;;;11.68;95.77;100001.72;4995821;28;20796;-88
2021/10/30 03:54:53;;;;;;;9.75;7.55;;;;;;;11.68;95.41;100007.09;5001637;28;20399;-85
2021/10/30 03:57:20;;;;;;;11.80;7.45;;;;;;;11.67;95.35;100001.91;4982525;28;20045;-86
2021/10/30 03:59:45;;;;;;;10.18;7.45;;;;;;;11.65;95.26;99998.56;4982129;28;20038;-86
2021/10/30 04:02:11;;;;;;;9.13;6.97;;;;;;;11.66;95.11;99997.56;5019941;28;20033;-86
2021/10/30 04:04:36;;;;;;;11.93;7.53;;;;;;;11.66;94.74;100000.25;5011249;28;20038;-86
2021/10/30 04:07:02;;;;;;;11.15;7.15;;;;;;;11.69;94.09;100000.69;4965466;28;20327;-84
2021/10/30 04:09:28;;;;;;;9.50;6.93;;;;;;;11.71;93.61;99990.59;4974086;28;20514;-84
2021/10/30 04:11:54;;;;;;;12.25;6.70;;;;;;;11.71;93.60;99985.22;5001586;28;20126;-84
2021/10/30 04:14:20;;;;;;;9.82;6.63;;;;;;;11.72;93.13;99980.66;4994172;28;20125;-86
2021/10/30 04:16:46;;;;;;;13.70;8.27;;;;;;;11.71;93.00;99993.28;5010974;28;20033;-82
2021/10/30 04:19:13;;;;;;;10.70;7.35;;;;;;;11.70;92.87;99991.59;5011200;28;20038;-84
2021/10/30 04:21:39;;;;;;;12.63;7.53;;;;;;;11.73;92.71;99993.91;5010752;28;20064;-85
2021/10/30 04:24:05;;;;;;;11.25;7.38;;;;;;;11.71;92.45;99990.59;5011148;28;20116;-82
2021/10/30 04:26:31;;;;;;;11.07;7.20;;;;;;;11.72;92.48;99980.66;5010163;28;20133;-86
2021/10/30 04:28:56;;;;;;;11.73;7.07;;;;;;;11.73;92.12;99971.56;5010839;28;20557;-85
2021/10/30 04:31:26;;;;;;;12.25;6.95;;;;;;;11.74;92.16;99967.88;4974943;28;20041;-84
2021/10/30 04:33:54;;;;;;;10.98;7.50;;;;;;;11.71;92.04;99969.09;4973676;28;20046;-87
2021/10/30 04:36:23;;;;;;;10.13;6.80;;;;;;;11.72;91.72;99967.22;4989314;28;20048;-84
2021/10/30 04:38:48;;;;;;;10.00;6.65;;;;;;;11.74;91.52;99963.34;4991659;28;20042;-87
2021/10/30 04:41:15;;;;;;;8.50;6.30;;;;;;;11.78;91.01;99966.47;4985740;28;20503;-83
2021/10/30 04:43:41;;;;;;;9.02;5.53;;;;;;;11.80;90.88;99967.09;4991727;28;20045;-84
2021/10/30 04:46:07;;;;;;;9.23;6.15;;;;;;;11.83;91.02;99957.84;5011093;28;20050;-84
2021/10/30 04:48:33;;;;;;;9.68;6.35;;;;;;;11.83;90.33;99957.84;5009497;28;20049;-87
2021/10/30 04:50:59;;;;;;;9.40;6.40;;;;;;;11.86;90.33;99960.16;4993164;28;20132;-88
2021/10/30 04:53:24;;;;;;;9.10;5.97;;;;;;;11.90;89.76;99956.06;5008092;28;20133;-87
2021/10/30 04:55:50;;;;;;;8.57;5.43;;;;;;;11.92;89.57;99960.22;4991075;28;20038;-85
2021/10/30 04:58:15;;;;;;;7.82;5.22;;;;;;;11.93;88.61;99948.44;5003684;28;20049;-84
2021/10/30 05:00:40;;;;;;;9.55;5.68;;;;;;;11.95;88.84;99954.44;4998742;28;20057;-85
2021/10/30 05:03:06;;;;;;;7.82;5.45;;;;;;;11.99;88.67;99951.38;4981592;28;20568;-84
2021/10/30 05:05:31;;;;;;;8.07;5.40;;;;;;;12.03;88.59;99955.34;5005464;28;20097;-82
2021/10/30 05:07:57;;;;;;;8.70;5.13;;;;;;;12.02;88.61;99953.66;4993033;28;20494;-85
2021/10/30 05:10:22;;;;;;;11.07;5.60;;;;;;;12.03;89.11;99949.97;5008523;28;20042;-85
2021/10/30 05:12:48;;;;;;;9.38;5.38;;;;;;;12.02;89.25;99942.91;4997244;28;20053;-87
2021/10/30 05:15:13;;;;;;;9.38;5.43;;;;;;;11.96;89.73;99945.34;4997671;28;20403;-86
2021/10/30 05:17:39;;;;;;;8.68;5.95;;;;;;;11.96;89.59;99939.97;4994678;28;20045;-84
2021/10/30 05:20:05;;;;;;;8.00;5.82;;;;;;;11.94;89.96;99942.03;4993066;28;20482;-87
2021/10/30 05:22:30;;;;;;;7.05;5.20;;;;;;;11.92;89.82;99941.41;5009474;28;20368;-87
2021/10/30 05:24:56;;;;;;;8.95;5.50;;;;;;;11.93;90.06;99940.34;4983832;28;20054;-84
2021/10/30 05:27:21;;;;;;;8.73;5.95;;;;;;;11.92;90.44;99938.72;4983894;28;20141;-82
2021/10/30 05:29:47;;;;;;;8.60;5.88;;;;;;;11.91;90.59;99936.19;5001747;28;20041;-83
2021/10/30 05:32:13;;;;;;;10.02;5.68;;;;;;;11.87;91.10;99930.38;5001428;28;20035;-85
2021/10/30 05:34:39;;;;;;;10.75;6.30;;;;;;;11.82;92.04;99924.72;4996552;28;20073;-83
2021/10/30 05:37:06;;;;;;;9.55;6.35;;;;;;;11.78;92.81;99919.94;4970933;28;20076;-85
2021/10/30 05:39:35;;;;;;;10.93;6.60;;;;;;;11.72;93.48;99922.38;4954818;28;20124;-85
2021/10/30 05:42:01;;;;;;;9.18;6.43;;;;;;;11.66;94.13;99911.56;4990574;28;20042;-88
2021/10/30 05:44:27;;;;;;;9.95;6.47;;;;;;;11.65;94.34;99912.56;4984345;28;20084;-88
2021/10/30 05:46:52;;;;;;;10.50;6.70;;;;;;;11.63;94.38;99909.28;4999910;28;20064;-88
2021/10/30 05:49:18;;;;;;;10.45;6.82;;;;;;;11.60;95.33;99904.28;4956256;28;20049;-83
2021/10/30 05:51:43;;;;;;;8.57;5.95;;;;;;;11.59;95.51;99905.28;4990980;28;20033;-86
2021/10/30 05:54:09;;;;;;;12.52;7.13;;;;;;;11.57;95.65;99897.44;4988040;28;20052;-85
2021/10/30 05:56:34;;;;;;;11.77;6.93;;;;;;;11.55;96.34;99906.72;4998508;28;20489;-82
2021/10/30 05:58:59;;;;;;;12.27;7.15;;;;;;;11.47;97.08;99900.41;4989595;28;20053;-88
2021/10/30 06:01:25;;;;;;;10.75;6.85;;;;;;;11.48;97.50;99904.78;4991711;28;20040;-86
2021/10/30 06:03:51;;;;;;;12.80;7.50;;;;;;;11.45;98.21;99902.50;5003464;28;20042;-87
2021/10/30 06:06:16;;;;;;;13.98;7.78;;;;;;;11.41;98.51;99897.69;4979541;28;20072;-88
2021/10/30 06:08:41;;;;;;;12.85;7.07;;;;;;;11.38;99.01;99892.69;4978241;28;20144;-87
2021/10/30 06:11:09;;;;;;;11.52;7.20;;;;;;;11.37;99.83;99881.13;4994213;28;20034;-86
2021/10/30 06:13:34;;;;;;;10.48;7.35;;;;;;;11.34;100.00;99881.50;5009379;28;20065;-81
2021/10/30 06:16:01;;;;;;;8.90;7.35;;;;;;;11.34;100.00;99869.94;4988801;28;20504;-90
2021/10/30 06:18:26;;;;;;;13.50;8.90;;;;;;;11.31;100.00;99863.09;4983091;28;20046;-84
2021/10/30 06:20:52;;;;;;;12.77;8.18;;;;;;;11.27;100.00;99859.09;4973073;28;20493;-88
2021/10/30 06:23:17;;;;;;;12.80;8.73;;;;;;;11.19;100.00;99862.75;5004617;28;20034;-87
2021/10/30 06:25:43;;;;;;;12.20;8.05;;;;;;;11.16;100.00;99863.13;4972762;28;20057;-87
2021/10/30 06:28:10;;;;;;;13.77;8.25;;;;;;;11.16;100.00;99859.59;5000300;28;20478;-85
2021/10/30 06:30:35;;;;;;;12.68;9.05;;;;;;;11.14;100.00;99864.34;5007570;28;20038;-87
2021/10/30 06:33:00;;;;;;;12.02;8.50;;;;;;;11.14;100.00;99861.66;4992278;28;20042;-85
2021/10/30 06:35:26;;;;;;;11.23;8.57;;;;;;;11.13;100.00;99865.34;4991137;28;20054;-89
2021/10/30 06:37:51;;;;;;;15.02;9.70;;;;;;;11.12;100.00;99856.47;4988783;28;20041;-85
2021/10/30 06:40:17;;;;;;;15.02;8.75;;;;;;;11.12;100.00;99861.03;4993917;28;20042;-88
2021/10/30 06:42:43;;;;;;;12.50;9.25;;;;;;;11.13;100.00;99860.00;4988358;28;20247;-85
2021/10/30 06:45:10;;;;;;;12.52;8.77;;;;;;;11.13;100.00;99852.75;5010901;28;20033;-83
2021/10/30 06:47:37;;;;;;;13.98;8.75;;;;;;;11.15;100.00;99855.28;4988445;28;20136;-83
2021/10/30 06:50:19;;;;;;;11.05;8.20;;;;;;;11.16;100.00;99854.22;5007660;28;20647;-83
2021/10/30 06:52:52;;;;;;;12.13;8.73;;;;;;;11.18;100.00;99862.94;4999694;28;20050;-89
2021/10/30 06:55:20;;;;;;;11.65;7.85;;;;;;;11.21;100.00;99854.50;5002268;28;20048;-87
2021/10/30 06:57:58;;;;;;;12.98;8.63;;;;;;;11.23;100.00;99853.28;4980658;28;20045;-82
2021/10/30 07:00:23;;;;;;;11.48;7.75;;;;;;;11.23;100.00;99858.66;5003837;28;20066;-82
2021/10/30 07:02:52;;;;;;;12.50;8.15;;;;;;;11.27;100.00;99856.41;4997010;28;20434;-86
2021/10/30 07:05:17;;;;;;;11.48;7.30;;;;;;;11.28;100.00;99850.88;4996024;28;20061;-86
2021/10/30 07:07:43;;;;;;;12.38;7.80;;;;;;;11.32;100.00;99850.47;5007290;28;20049;-88
2021/10/30 07:10:09;;;;;;;10.70;8.63;;;;;;;11.29;100.00;99849.00;4995351;28;20056;-85
2021/10/30 07:12:37;;;;;;;12.27;8.05;;;;;;;11.32;100.00;99845.09;5012392;28;20069;-86
2021/10/30 07:15:03;;;;;;;12.05;8.50;;;;;;;11.31;100.00;99849.66;5006697;28;20065;-87
2021/10/30 07:17:28;;;;;;;12.23;8.57;;;;;;;11.30;100.00;99846.13;5014823;28;20077;-85
2021/10/30 07:19:54;;;;;;;10.55;8.27;;;;;;;11.32;100.00;99845.94;4998234;28;20045;-86
2021/10/30 07:22:20;;;;;;;12.00;8.48;;;;;;;11.33;100.00;99852.13;4993543;28;20494;-84
2021/10/30 07:24:46;;;;;;;15.52;7.93;;;;;;;11.32;100.00;99856.69;4960912;28;20044;-90
2021/10/30 07:27:12;;;;;;;12.05;8.57;;;;;;;11.33;100.00;99858.34;4973738;28;20080;-85
2021/10/30 07:29:39;;;;;;;12.57;9.30;;;;;;;11.34;100.00;99853.81;4994981;28;20042;-85
2021/10/30 07:32:08;;;;;;;11.23;9.07;;;;;;;11.34;100.00;99849.28;4995710;28;20038;-84
2021/10/30 07:34:35;;;;;;;14.80;9.18;;;;;;;11.32;100.00;99848.63;5010947;28;20050;-87
2021/10/30 07:37:00;;;;;;;12.45;8.43;;;;;;;11.33;100.00;99849.44;4992527;28;20085;-89
2021/10/30 07:39:29;;;;;;;14.00;9.90;;;;;;;11.35;100.00;99850.94;4991820;28;20653;-85
2021/10/30 07:41:55;;;;;;;11.35;7.70;;;;;;;11.33;100.00;99842.22;5010282;28;20068;-88
2021/10/30 07:44:20;;;;;;;12.02;8.27;;;;;;;11.35;100.00;99850.94;4977964;28;20057;-85
2021/10/30 07:46:45;;;;;;;11.63;8.27;;;;;;;11.38;100.00;99844.34;4992774;28;20095;-88
2021/10/30 07:49:11;;;;;;;13.43;8.93;;;;;;;11.36;100.00;99849.88;4982339;28;20040;-89
2021/10/30 07:51:36;;;;;;;12.07;7.75;;;;;;;11.40;100.00;99851.19;5019786;28;20060;-84
2021/10/30 07:54:02;;;;;;;10.68;7.53;;;;;;;11.41;100.00;99858.22;4984450;28;20113;-87
2021/10/30 07:56:28;;;;;;;12.20;7.45;;;;;;;11.42;100.00;99850.97;5015846;28;20401;-83
2021/10/30 07:58:54;;;;;;;10.07;7.78;;;;;;;11.43;100.00;99855.34;4993397;28;20136;-83
2021/10/30 08:01:19;;;;;;;10.57;7.63;;;;;;;11.47;100.00;99853.94;4994461;28;20459;-89
2021/10/30 08:03:46;;;;;;;10.10;7.40;;;;;;;11.47;100.00;99849.38;4976155;28;20042;-86
2021/10/30 08:06:11;;;;;;;11.32;7.90;;;;;;;11.48;100.00;99847.53;5002509;28;20123;-89
2021/10/30 08:08:36;;;;;;;11.63;7.57;;;;;;;11.48;100.00;99840.31;4966361;28;20293;-86
2021/10/30 08:11:03;;;;;;;12.77;7.45;;;;;;;11.48;100.00;99845.69;4974162;28;20041;-87
2021/10/30 08:13:28;;;;;;;10.52;7.22;;;;;;;11.48;100.00;99840.31;5002740;28;20059;-86
2021/10/30 08:15:55;;;;;;;11.70;7.55;;;;;;;11.51;100.00;99842.63;5005416;28;20038;-87
2021/10/30 08:18:22;;;;;;;11.23;7.50;;;;;;;11.52;100.00;99836.19;4988672;28;20042;-86
2021/10/30 08:20:47;;;;;;;10.95;7.55;;;;;;;11.51;100.00;99834.56;5003914;28;20153;-84
2021/10/30 08:23:17;;;;;;;10.15;6.95;;;;;;;11.52;100.00;99833.50;4974210;28;20635;-86
2021/10/30 08:25:43;;;;;;;10.80;7.38;;;;;;;11.56;100.00;99830.44;4975239;28;20040;-83
2021/10/30 08:28:09;;;;;;;10.40;7.97;;;;;;;11.57;100.00;99822.19;5003532;28;20517;-86
2021/10/30 08:30:35;;;;;;;12.27;8.63;;;;;;;11.58;100.00;99814.97;5003174;28;20046;-84
2021/10/30 08:33:03;;;;;;;10.07;7.88;;;;;;;11.58;100.00;99823.84;5002968;28;20062;-90
2021/10/30 08:35:28;;;;;;;12.40;8.38;;;;;;;11.58;100.00;99817.66;4988630;28;20041;-87
2021/10/30 08:37:54;;;;;;;9.20;7.20;;;;;;;11.56;100.00;99811.63;4990574;28;20041;-87
2021/10/30 08:40:21;;;;;;;10.90;7.70;;;;;;;11.58;100.00;99810.41;4990178;28;20062;-85
2021/10/30 08:42:50;;;;;;;11.95;7.82;;;;;;;11.58;100.00;99818.47;4988190;28;20046;-87
2021/10/30 08:45:16;;;;;;;10.30;7.13;;;;;;;11.60;100.00;99811.06;4987770;28;20064;-86
2021/10/30 08:47:43;;;;;;;12.80;7.13;;;;;;;11.60;100.00;99810.22;4990075;28;20042;-87
2021/10/30 08:50:09;;;;;;;11.43;7.78;;;;;;;11.61;100.00;99795.75;4979609;28;20553;-88
2021/10/30 08:52:37;;;;;;;11.18;6.70;;;;;;;11.61;100.00;99803.81;5000294;28;20042;-90
2021/10/30 08:55:05;;;;;;;9.02;7.20;;;;;;;11.63;100.00;99807.16;5009675;28;20038;-92
2021/10/30 08:57:31;;;;;;;14.02;7.43;;;;;;;11.63;100.00;99805.28;4989782;28;20379;-86
2021/10/30 09:00:15;;;;;;;12.00;7.68;;;;;;;11.64;100.00;99811.50;5001470;28;20041;-84
2021/10/30 09:02:41;;;;;;;12.65;8.07;;;;;;;11.66;100.00;99807.59;4973376;28;20057;-85
2021/10/30 09:05:18;;;;;;;10.98;8.60;;;;;;;11.66;100.00;99809.44;5004702;28;20125;-82
2021/10/30 09:07:46;;;;;;;9.80;7.10;;;;;;;11.67;100.00;99798.50;4976149;28;20034;-85
2021/10/30 09:10:18;;;;;;;12.48;7.80;;;;;;;11.66;100.00;99804.91;5004341;28;20042;-88
2021/10/30 09:12:59;;;;;;;10.75;7.82;;;;;;;11.67;100.00;99800.34;4991313;28;20120;-85
2021/10/30 09:15:39;;;;;;;12.63;7.75;;;;;;;11.70;100.00;99798.09;4984231;28;20077;-86
2021/10/30 09:18:32;;;;;;;12.15;7.25;;;;;;;11.72;100.00;99787.16;4987233;28;20511;-82
2021/10/30 09:21:03;;;;;;;8.60;6.43;;;;;;;11.75;100.00;99792.97;4990977;28;20046;-90
2021/10/30 09:23:37;;;;;;;10.02;6.85;;;;;;;11.79;100.00;99800.63;4991520;28;20041;-88
2021/10/30 09:26:06;;;;;;;9.95;7.00;;;;;;;11.81;100.00;99794.03;5006241;28;20077;-88
2021/10/30 09:28:36;;;;;;;10.27;7.35;;;;;;;11.84;100.00;99785.59;4992881;28;20066;-88
2021/10/30 09:31:10;;;;;;;11.43;7.90;;;;;;;11.86;100.00;99790.81;5002246;28;20395;-83
2021/10/30 09:33:57;;;;;;;11.10;7.70;;;;;;;11.90;100.00;99789.38;4989956;28;20049;-86
2021/10/30 09:36:31;;;;;;;8.40;6.95;;;;;;;11.91;100.00;99782.97;4993166;28;20050;-85
2021/10/30 09:39:00;;;;;;;12.10;8.27;;;;;;;11.94;100.00;99788.78;4991171;28;20179;-85
2021/10/30 09:41:29;;;;;;;10.73;7.50;;;;;;;11.99;100.00;99781.97;4971308;28;20042;-88
2021/10/30 09:43:58;;;;;;;9.30;7.28;;;;;;;12.01;100.00;99786.13;4985159;28;20148;-83
2021/10/30 09:46:24;;;;;;;9.67;7.03;;;;;;;12.05;100.00;99786.56;4992253;28;20061;-87
2021/10/30 09:48:52;;;;;;;10.07;7.20;;;;;;;12.09;100.00;99782.47;5005120;28;20269;-84
2021/10/30 09:51:37;;;;;;;9.18;7.07;;;;;;;12.15;100.00;99781.66;5010815;28;20045;-89
2021/10/30 09:54:07;;;;;;;9.07;7.10;;;;;;;12.19;100.00;99778.38;4992297;28;20156;-88
2021/10/30 09:56:45;;;;;;;8.77;5.78;;;;;;;12.21;100.00;99778.19;5007580;28;20423;-87
2021/10/30 09:59:19;;;;;;;11.02;6.18;;;;;;;12.26;100.00;99780.28;4953971;28;20049;-85
2021/10/30 10:01:47;;;;;;;8.35;5.68;;;;;;;12.29;99.58;99783.41;4956976;28;20034;-89
2021/10/30 10:04:18;;;;;;;11.40;5.50;;;;;;;12.35;99.19;99781.75;4988959;28;20074;-85
2021/10/30 10:06:45;;;;;;;8.60;5.63;;;;;;;12.40;99.17;99774.75;4982191;28;20042;-88
2021/10/30 10:09:12;;;;;;;7.53;5.53;;;;;;;12.44;98.12;99767.09;4991409;28;20430;-87
2021/10/30 10:11:49;;;;;;;9.23;5.32;;;;;;;12.50;98.34;99768.16;4986728;28;20052;-87
2021/10/30 10:14:16;;;;;;;8.90;5.20;;;;;;;12.53;98.01;99773.97;5002651;28;20152;-86
2021/10/30 10:16:44;;;;;;;8.07;5.03;;;;;;;12.56;97.92;99776.25;4991564;28;20038;-82
2021/10/30 10:19:10;;;;;;;10.37;5.10;;;;;;;12.58;97.66;99776.06;5004417;28;20482;-88
2021/10/30 10:21:39;;;;;;;7.50;4.90;;;;;;;12.58;98.18;99781.44;5000927;28;20280;-86
2021/10/30 10:24:17;;;;;;;7.22;4.60;;;;;;;12.58;99.28;99779.56;5006210;28;20084;-84
2021/10/30 10:26:45;;;;;;;8.67;5.73;;;;;;;12.57;98.81;99777.06;4974502;28;20103;-82
2021/10/30 10:29:13;;;;;;;8.27;5.10;;;;;;;12.56;99.39;99767.34;5012161;28;20049;-82
2021/10/30 10:31:51;;;;;;;8.45;4.68;;;;;;;12.56;100.00;99767.34;4998754;28;20045;-81
2021/10/30 10:34:20;;;;;;;6.03;4.63;;;;;;;12.55;100.00;99766.53;5002284;28;20038;-89
2021/10/30 10:36:47;;;;;;;6.63;4.70;;;;;;;12.56;100.00;99762.78;5005176;28;20466;-87
2021/10/30 10:39:22;;;;;;;8.93;4.85;;;;;;;12.57;100.00;99759.09;5006350;28;20052;-83
2021/10/30 10:41:51;;;;;;;7.13;5.13;;;;;;;12.58;100.00;99751.84;4986799;28;20050;-87
2021/10/30 10:44:22;;;;;;;7.80;4.57;;;;;;;12.56;100.00;99752.03;4994282;28;20119;-87
2021/10/30 10:46:49;;;;;;;6.75;4.68;;;;;;;12.59;100.00;99756.19;4990938;28;20092;-91
2021/10/30 10:49:17;;;;;;;8.50;4.75;;;;;;;12.60;100.00;99747.06;5008664;28;20042;-82
2021/10/30 10:51:52;;;;;;;7.53;4.70;;;;;;;12.61;100.00;99743.34;4995030;28;20046;-84
2021/10/30 10:54:17;;;;;;;7.43;4.53;;;;;;;12.63;100.00;99746.69;5005441;28;20077;-83
2021/10/30 10:56:58;;;;;;;8.30;4.60;;;;;;;12.63;100.00;99749.38;4984173;28;20055;-83
2021/10/30 10:59:40;;;;;;;6.75;3.88;;;;;;;12.63;100.00;99739.44;4992248;28;20044;-87
2021/10/30 11:02:17;;;;;;;6.40;4.15;;;;;;;12.64;100.00;99727.63;4986461;28;20124;-88
2021/10/30 11:05:08;;;;;;;8.85;4.30;;;;;;;12.65;100.00;99723.06;5006210;28;20372;-92
2021/10/30 11:07:41;;;;;;;6.47;4.10;;;;;;;12.65;100.00;99725.75;4992558;28;20513;-87
2021/10/30 11:10:10;;;;;;;7.25;4.40;;;;;;;12.64;100.00;99722.25;4986403;28;20042;-86
2021/10/30 11:12:35;;;;;;;8.38;4.80;;;;;;;12.66;100.00;99722.06;4995487;28;20043;-88
2021/10/30 11:15:11;;;;;;;5.93;4.43;;;;;;;12.68;100.00;99711.06;5006196;28;20395;-87
2021/10/30 11:17:52;;;;;;;6.93;4.28;;;;;;;12.67;100.00;99707.56;4975717;28;20050;-89